Time;durP1;ratioP1;P1;durP2;ratioP2;P2;SDS_P1;SDS_P2;PMS_P1;PMS_P2;Temp;Humidity;BMP_temperature;BMP_pressure;BME280_temperature;BME280_humidity;BME280_pressure;Samples;Min_cycle;Max_cycle;Signal;HPM_P1;HPM_P2
2022/08/08 03:48:35;;;;;;;3.58;1.80;;;;;;;24.21;45.40;100749.41;5605074;31;125758;-57
2022/08/08 03:51:59;;;;;;;4.50;1.90;;;;;;;24.21;45.40;100749.41;5583957;31;33169;-57
2022/08/08 03:55:09;;;;;;;3.53;2.03;;;;;;;23.67;45.26;100753.84;5584082;31;34551;-57
2022/08/08 03:58:31;;;;;;;3.90;2.25;;;;;;;23.66;45.27;100748.69;5583735;31;33961;-57
2022/08/08 04:01:40;;;;;;;4.85;1.70;;;;;;;23.69;45.08;100742.53;5584023;32;34198;-57
2022/08/08 04:05:06;;;;;;;3.10;1.77;;;;;;;23.75;44.88;100745.78;5583870;31;33390;-57
2022/08/08 04:08:17;;;;;;;3.78;1.85;;;;;;;23.89;44.23;100744.12;5583546;31;34282;-57
2022/08/08 04:11:39;;;;;;;6.55;1.90;;;;;;;23.87;44.18;100751.91;5583919;31;33102;-57
2022/08/08 04:15:03;;;;;;;4.87;2.17;;;;;;;23.85;44.39;100753.41;5583813;31;34138;-57
2022/08/08 04:18:07;;;;;;;2.70;1.87;;;;;;;23.80;44.65;100751.75;5583843;31;34420;-57
2022/08/08 04:21:18;;;;;;;4.15;2.00;;;;;;;23.83;44.19;100751.03;5583495;31;33341;-57
2022/08/08 04:24:24;;;;;;;6.57;1.85;;;;;;;24.00;43.80;100760.75;5583800;31;33196;-57
2022/08/08 04:27:34;;;;;;;3.25;1.62;;;;;;;24.13;43.39;100766.84;5583437;31;33350;-57
2022/08/08 04:30:57;;;;;;;2.90;1.65;;;;;;;24.05;43.34;100756.94;5583720;31;34333;-57
2022/08/08 04:34:02;;;;;;;3.12;1.90;;;;;;;23.96;44.45;100764.56;5583670;31;34252;-57
2022/08/08 04:37:06;;;;;;;4.15;1.98;;;;;;;24.03;43.79;100770.19;5583463;31;34162;-57
2022/08/08 04:40:09;;;;;;;4.82;1.70;;;;;;;24.11;43.85;100771.91;5583731;31;34120;-57
2022/08/08 04:43:16;;;;;;;3.22;1.60;;;;;;;24.13;43.69;100781.34;5583556;31;33031;-57
2022/08/08 04:46:23;;;;;;;4.00;2.00;;;;;;;24.06;43.99;100783.94;5576594;32;34329;-57
2022/08/08 04:49:26;;;;;;;3.10;1.80;;;;;;;24.06;44.08;100780.41;5563362;32;33141;-57
2022/08/08 04:52:49;;;;;;;3.95;1.80;;;;;;;23.98;44.16;100789.66;5563868;32;33691;-57
2022/08/08 04:56:03;;;;;;;5.00;2.15;;;;;;;23.95;44.59;100798.59;5563665;32;33140;-57
2022/08/08 04:59:05;;;;;;;3.50;1.90;;;;;;;23.92;44.96;100792.69;5554429;32;33279;-57
2022/08/08 05:02:09;;;;;;;4.68;2.10;;;;;;;23.95;44.25;100790.38;5550800;32;33547;-57
2022/08/08 05:05:16;;;;;;;2.97;1.95;;;;;;;23.97;44.66;100793.53;5550589;32;34222;-57
2022/08/08 05:08:39;;;;;;;4.15;2.05;;;;;;;23.98;44.95;100801.41;5550727;32;34327;-57
2022/08/08 05:11:42;;;;;;;7.93;2.10;;;;;;;23.95;43.77;100796.66;5550810;32;33352;-57
2022/08/08 05:14:58;;;;;;;3.03;1.80;;;;;;;24.06;43.65;100785.91;5550623;32;33321;-57
2022/08/08 05:18:01;;;;;;;7.37;2.10;;;;;;;23.97;43.73;100797.06;5550152;32;33312;-57
2022/08/08 05:21:07;;;;;;;3.33;1.80;;;;;;;24.01;44.00;100784.25;5550940;32;33708;-57
2022/08/08 05:24:15;;;;;;;7.82;2.10;;;;;;;24.01;43.20;100786.22;5551613;32;33567;-57
2022/08/08 05:27:23;;;;;;;2.60;1.77;;;;;;;23.92;43.86;100780.94;5567325;32;34321;-57
2022/08/08 05:30:26;;;;;;;12.52;2.30;;;;;;;23.94;46.65;100788.78;5569655;31;33481;-57
2022/08/08 05:33:31;;;;;;;5.68;2.55;;;;;;;23.96;43.76;100792.75;5569709;32;33179;-57
2022/08/08 05:36:53;;;;;;;4.57;2.10;;;;;;;23.97;43.52;100797.06;5569563;32;33355;-57
2022/08/08 05:40:03;;;;;;;7.18;1.90;;;;;;;23.96;43.20;100798.22;5569521;32;34335;-57
2022/08/08 05:43:09;;;;;;;4.90;2.05;;;;;;;24.07;42.69;100804.72;5569648;31;33270;-57
2022/08/08 05:46:33;;;;;;;5.70;1.95;;;;;;;24.04;42.14;100794.50;5569323;32;33315;-57
2022/08/08 05:49:36;;;;;;;6.12;1.70;;;;;;;24.12;41.72;100798.94;5569635;32;33628;-57
2022/08/08 05:52:40;;;;;;;3.10;1.70;;;;;;;24.17;41.35;100795.09;5569681;32;33613;-57
2022/08/08 05:55:46;;;;;;;;;;;;;;;24.21;41.55;100787.75;5570057;31;33351;-57
2022/08/08 05:59:21;;;;;;;2.80;1.60;;;;;;;24.22;41.35;100794.03;5569713;32;33886;-57
2022/08/08 06:06:10;;;;;;;4.05;1.90;;;;;;;24.08;41.95;100798.09;5569476;32;33276;-57
2022/08/08 06:09:31;;;;;;;5.40;1.83;;;;;;;24.13;41.93;100797.78;5568652;32;33372;-57
2022/08/08 06:12:55;;;;;;;2.67;1.70;;;;;;;24.12;41.10;100796.19;5569400;31;33445;-57
2022/08/08 06:15:57;;;;;;;2.97;1.77;;;;;;;24.17;41.64;100789.63;5569391;32;33221;-57
2022/08/08 06:19:01;;;;;;;6.03;1.80;;;;;;;24.20;41.72;100790.84;5569267;32;33393;-57
2022/08/08 06:22:05;;;;;;;4.40;2.00;;;;;;;24.17;42.06;100791.56;5569475;32;33663;-57
2022/08/08 06:25:30;;;;;;;8.98;1.77;;;;;;;24.27;40.43;100800.00;5566288;32;35153;-57
2022/08/08 06:29:08;;;;;;;6.95;1.73;;;;;;;24.36;40.40;100808.78;5551709;32;33742;-57
2022/08/08 06:32:31;;;;;;;20.45;2.42;;;;;;;24.42;39.86;100814.78;5549836;32;34086;-57
2022/08/08 06:35:35;;;;;;;31.08;2.62;;;;;;;24.48;40.15;100798.84;5549716;32;33544;-57
2022/08/08 06:38:59;;;;;;;10.80;1.98;;;;;;;24.59;39.00;100794.34;5549683;32;33814;-57
2022/08/08 06:42:11;;;;;;;11.68;1.87;;;;;;;24.59;39.40;100808.03;5549516;32;33746;-57
2022/08/08 06:45:15;;;;;;;11.35;1.83;;;;;;;24.66;38.87;100802.69;5549667;32;33349;-57
2022/08/08 06:48:18;;;;;;;2.97;1.30;;;;;;;24.60;38.92;100804.13;5549397;32;33676;-57
2022/08/08 06:51:23;;;;;;;4.25;1.62;;;;;;;24.56;38.05;100806.03;5549547;32;34222;-57
2022/08/08 06:54:47;;;;;;;6.10;1.75;;;;;;;24.58;39.10;100817.44;5549482;32;33286;-57
2022/08/08 06:57:50;;;;;;;8.48;1.70;;;;;;;24.60;38.38;100812.34;5549556;32;34127;-57
2022/08/08 07:01:00;;;;;;;2.58;1.60;;;;;;;24.41;39.00;100815.94;5549467;32;33383;-57
2022/08/08 07:04:49;;;;;;;4.97;1.90;;;;;;;24.50;39.34;100813.78;5549688;32;34605;-57
2022/08/08 07:08:08;;;;;;;7.18;1.90;;;;;;;24.51;41.21;100818.09;5549484;32;33419;-57
2022/08/08 07:11:16;;;;;;;2.92;1.52;;;;;;;24.48;41.31;100818.81;5549546;32;33715;-57
2022/08/08 07:14:46;;;;;;;5.15;1.70;;;;;;;24.44;44.72;100817.19;5549632;32;33434;-57
2022/08/08 07:18:00;;;;;;;4.47;1.65;;;;;;;24.37;42.72;100810.37;5549089;32;33337;-57
2022/08/08 07:21:27;;;;;;;5.18;1.70;;;;;;;24.36;43.10;100813.47;5548978;32;34475;-57
2022/08/08 07:24:50;;;;;;;6.53;1.77;;;;;;;24.35;44.47;100822.84;5549299;32;33339;-57
2022/08/08 07:28:05;;;;;;;6.85;1.80;;;;;;;24.43;43.60;100810.88;5549243;32;34428;-58
2022/08/08 07:31:10;;;;;;;;;;;;;;;24.52;44.04;100807.91;5549482;32;34159;-57
2022/08/08 07:34:15;;;;;;;8.40;2.00;;;;;;;24.64;42.89;100813.22;5549264;32;34641;-57
2022/08/08 07:37:35;;;;;;;5.93;1.55;;;;;;;24.77;41.48;100817.38;5548879;32;33411;-57
2022/08/08 07:41:00;;;;;;;5.37;1.55;;;;;;;24.82;39.44;100819.00;5549023;32;33440;-57
2022/08/08 07:44:08;;;;;;;2.53;1.60;;;;;;;24.90;38.49;100828.94;5549016;32;33232;-57
2022/08/08 07:47:30;;;;;;;6.22;1.65;;;;;;;25.00;38.09;100833.00;5548267;32;33727;-57
2022/08/08 07:50:42;;;;;;;7.43;1.73;;;;;;;25.11;38.01;100824.97;5548762;32;34489;-57
2022/08/08 07:53:53;;;;;;;16.10;1.98;;;;;;;25.23;37.95;100833.81;5548489;32;34344;-57
2022/08/08 07:57:29;;;;;;;3.50;1.60;;;;;;;25.28;38.51;100838.19;5548363;32;34412;-57
2022/08/08 08:00:42;;;;;;;8.93;2.10;;;;;;;25.42;38.51;100843.87;5548672;32;33437;-57
2022/08/08 08:03:54;;;;;;;10.52;2.20;;;;;;;25.37;38.62;100848.91;5548612;32;33181;-57
2022/08/08 08:06:59;;;;;;;18.00;2.45;;;;;;;25.36;38.37;100844.56;5548393;32;33447;-57
2022/08/08 08:10:03;;;;;;;30.42;3.17;;;;;;;25.48;39.13;100845.16;5548408;32;34405;-57
2022/08/08 08:13:52;;;;;;;6.10;1.90;;;;;;;25.45;39.31;100834.13;5548462;32;33715;-57
2022/08/08 08:17:17;;;;;;;5.45;2.00;;;;;;;25.51;38.32;100838.13;5548163;32;34223;-57
2022/08/08 08:20:28;;;;;;;3.33;1.70;;;;;;;25.54;38.75;100831.91;5548544;32;34276;-57
2022/08/08 08:23:32;;;;;;;5.40;1.83;;;;;;;25.76;38.34;100832.97;5548288;32;33494;-58
2022/08/08 08:26:42;;;;;;;7.62;1.70;;;;;;;25.94;38.24;100836.78;5548139;32;34224;-57
2022/08/08 08:29:54;;;;;;;7.25;2.28;;;;;;;26.05;38.98;100838.84;5548150;32;33479;-57
2022/08/08 08:32:58;;;;;;;9.33;2.10;;;;;;;26.21;39.12;100842.19;5548584;32;33467;-57
2022/08/08 08:36:02;;;;;;;5.43;2.10;;;;;;;26.26;38.59;100841.88;5550802;32;33327;-57
2022/08/08 08:39:22;;;;;;;7.00;2.17;;;;;;;26.23;38.56;100839.88;5550261;32;34178;-57
2022/08/08 08:42:27;;;;;;;5.30;1.75;;;;;;;26.30;38.58;100847.41;5550774;32;33666;-57
2022/08/08 08:45:38;;;;;;;9.30;2.35;;;;;;;26.22;38.57;100858.31;5550417;32;33381;-57
2022/08/08 08:48:43;;;;;;;11.15;2.58;;;;;;;26.29;38.82;100863.09;5550491;32;34655;-58
2022/08/08 08:51:52;;;;;;;9.18;2.10;;;;;;;26.43;38.55;100860.50;5550493;32;33377;-57
2022/08/08 08:54:58;;;;;;;11.18;2.15;;;;;;;26.61;37.90;100857.16;5550796;32;33442;-57
2022/08/08 08:58:05;;;;;;;4.68;1.90;;;;;;;26.58;38.10;100858.72;5550334;32;33340;-58
2022/08/08 09:01:13;;;;;;;7.05;2.20;;;;;;;26.51;38.47;100866.88;5567855;32;33135;-58
2022/08/08 09:04:21;;;;;;;21.77;3.12;;;;;;;26.61;38.44;100860.69;5570210;32;33288;-57
2022/08/08 09:07:42;;;;;;;37.88;3.92;;;;;;;26.63;38.59;100860.34;5569703;32;33439;-58
2022/08/08 09:11:06;;;;;;;11.82;2.45;;;;;;;26.46;39.82;100856.22;5569738;32;33477;-57
2022/08/08 09:14:11;;;;;;;13.55;2.12;;;;;;;26.51;40.52;100861.38;5569773;32;34180;-57
2022/08/08 09:17:15;;;;;;;7.37;2.45;;;;;;;26.47;40.12;100866.84;5569800;32;33331;-57
2022/08/08 09:20:38;;;;;;;7.70;2.33;;;;;;;26.32;41.46;100867.81;5569809;32;33658;-57
2022/08/08 09:24:01;;;;;;;8.80;2.33;;;;;;;26.27;42.21;100872.88;5569519;32;33346;-58
2022/08/08 09:27:07;;;;;;;6.97;2.62;;;;;;;26.24;43.20;100869.72;5569577;32;34420;-57
2022/08/08 09:30:26;;;;;;;9.05;2.30;;;;;;;26.32;43.53;100875.28;5569627;32;33306;-57
2022/08/08 09:33:31;;;;;;;5.90;2.40;;;;;;;26.30;43.63;100875.66;5569637;32;34180;-58
2022/08/08 09:37:01;;;;;;;18.80;2.67;;;;;;;26.29;44.57;100874.09;5568782;32;33429;-58
2022/08/08 09:40:25;;;;;;;8.68;2.53;;;;;;;26.21;45.14;100869.66;5569560;32;33368;-57
2022/08/08 09:43:50;;;;;;;8.55;2.62;;;;;;;26.18;45.77;100862.97;5569648;32;33711;-57
2022/08/08 09:47:13;;;;;;;6.37;2.85;;;;;;;26.19;46.50;100864.56;5569372;32;33594;-58
2022/08/08 09:50:36;;;;;;;7.57;3.00;;;;;;;26.12;46.95;100858.97;5569577;32;34366;-57
2022/08/08 09:53:48;;;;;;;11.05;2.72;;;;;;;26.22;47.04;100858.31;5569644;32;33734;-57
2022/08/08 09:57:10;;;;;;;6.10;2.90;;;;;;;26.16;47.27;100850.78;5569575;32;34319;-58
2022/08/08 10:00:19;;;;;;;7.12;3.12;;;;;;;26.15;47.50;100840.94;5569646;32;33646;-57
2022/08/08 10:03:45;;;;;;;6.85;3.10;;;;;;;26.08;48.23;100849.09;5569638;32;33718;-57
2022/08/08 10:06:57;;;;;;;;;;;;;;;26.01;48.47;100847.84;5569916;32;33916;-58
2022/08/08 10:10:01;;;;;;;4.93;3.12;;;;;;;26.02;48.63;100848.62;5569418;32;34017;-57
2022/08/08 10:13:19;;;;;;;8.65;3.30;;;;;;;26.04;49.29;100843.56;5569215;32;34383;-58
2022/08/08 10:16:38;;;;;;;7.93;3.10;;;;;;;26.02;48.85;100848.62;5569465;32;33824;-58
2022/08/08 10:19:41;;;;;;;6.97;3.12;;;;;;;25.83;48.31;100854.25;5569370;32;33594;-57
2022/08/08 10:23:00;;;;;;;12.43;3.60;;;;;;;25.82;48.92;100850.72;5569107;32;33778;-58
2022/08/08 10:26:03;;;;;;;8.85;3.22;;;;;;;26.02;48.35;100857.66;5569280;32;33839;-57
2022/08/08 10:29:47;;;;;;;7.15;3.12;;;;;;;26.15;47.52;100858.22;5568595;32;34352;-57
2022/08/08 10:33:00;;;;;;;7.82;3.42;;;;;;;26.21;48.37;100859.47;5568855;32;33671;-57
2022/08/08 10:36:03;;;;;;;4.18;3.47;;;;;;;26.37;49.19;100848.25;5569489;32;33574;-57
2022/08/08 10:39:26;;;;;;;8.02;4.22;;;;;;;26.34;49.67;100842.72;5569052;32;34303;-57
2022/08/08 10:42:47;;;;;;;10.35;4.32;;;;;;;26.41;50.45;100842.78;5559944;32;33847;-57
2022/08/08 10:45:49;;;;;;;9.00;4.33;;;;;;;26.37;50.98;100826.28;5549476;32;34348;-57
2022/08/08 10:49:00;;;;;;;6.60;4.03;;;;;;;26.21;51.87;100821.00;5549336;32;34583;-58
2022/08/08 10:52:04;;;;;;;7.95;4.50;;;;;;;26.13;52.47;100829.56;5549426;32;34282;-58
2022/08/08 10:55:12;;;;;;;8.98;4.60;;;;;;;26.08;52.88;100838.09;5553216;32;33497;-57
2022/08/08 10:58:16;;;;;;;7.85;5.07;;;;;;;26.13;52.79;100837.78;5558880;32;33695;-57
2022/08/08 11:01:19;;;;;;;10.15;6.10;;;;;;;26.15;53.81;100843.69;5557555;32;34392;-57
2022/08/08 11:04:22;;;;;;;11.82;5.55;;;;;;;25.89;56.63;100847.28;5559292;32;33642;-57
2022/08/08 11:07:42;;;;;;;13.32;6.20;;;;;;;25.83;57.35;100838.59;5557323;32;34430;-57
2022/08/08 11:11:06;;;;;;;13.00;5.73;;;;;;;25.75;58.02;100834.13;5560128;32;34853;-58
2022/08/08 11:14:24;;;;;;;8.65;5.07;;;;;;;25.92;57.51;100841.06;5562711;32;33620;-57
2022/08/08 11:17:31;;;;;;;10.55;5.03;;;;;;;26.04;55.91;100834.53;5561608;32;33297;-58
2022/08/08 11:20:56;;;;;;;10.15;4.62;;;;;;;26.09;55.25;100832.22;5551189;32;33799;-57
2022/08/08 11:24:08;;;;;;;8.30;5.47;;;;;;;26.21;54.19;100833.94;5548041;32;34559;-58
2022/08/08 11:27:12;;;;;;;7.70;5.40;;;;;;;26.27;54.29;100828.91;5549142;32;34442;-57
2022/08/08 11:30:28;;;;;;;11.10;7.00;;;;;;;26.48;56.45;100832.69;5549058;32;34420;-57
2022/08/08 11:33:35;;;;;;;10.20;6.90;;;;;;;26.62;57.30;100809.25;5549115;32;33711;-57
2022/08/08 11:36:59;;;;;;;13.85;7.60;;;;;;;26.61;57.14;100822.22;5549030;32;34397;-57
2022/08/08 11:40:16;;;;;;;7.15;4.37;;;;;;;26.69;56.57;100834.09;5548809;32;33849;-57
2022/08/08 11:43:29;;;;;;;8.48;4.95;;;;;;;26.69;49.27;100821.13;5549055;32;34269;-57
2022/08/08 11:46:41;;;;;;;13.73;7.05;;;;;;;26.82;54.35;100831.81;5548542;32;34319;-57
2022/08/08 11:49:44;;;;;;;4.62;3.00;;;;;;;26.74;51.67;100835.69;5548778;32;34394;-57
2022/08/08 11:52:52;;;;;;;5.20;3.10;;;;;;;26.58;46.33;100831.22;5548675;32;33850;-57
2022/08/08 11:55:54;;;;;;;5.55;3.35;;;;;;;26.53;46.53;100837.06;5548683;32;33788;-57
2022/08/08 11:59:04;;;;;;;3.92;2.80;;;;;;;26.47;47.21;100831.13;5548801;32;34352;-57
2022/08/08 12:02:07;;;;;;;5.70;3.00;;;;;;;26.54;47.04;100824.91;5548718;32;33918;-57
2022/08/08 12:05:31;;;;;;;4.45;3.45;;;;;;;26.50;47.09;100823.28;5548624;32;34040;-57
2022/08/08 12:08:36;;;;;;;4.47;3.17;;;;;;;26.40;47.48;100830.22;5549378;32;34323;-57
2022/08/08 12:11:41;;;;;;;7.65;3.30;;;;;;;26.20;48.51;100819.41;5551000;32;33789;-57
2022/08/08 12:14:43;;;;;;;3.78;3.17;;;;;;;26.19;49.62;100830.78;5551004;32;33661;-57
2022/08/08 12:17:56;;;;;;;4.30;3.10;;;;;;;26.20;48.75;100826.87;5551074;32;34490;-57
2022/08/08 12:21:01;;;;;;;3.60;2.72;;;;;;;26.35;48.57;100822.31;5550887;32;33773;-57
2022/08/08 12:24:10;;;;;;;10.75;3.90;;;;;;;26.36;47.12;100826.66;5551160;32;34396;-57
2022/08/08 12:27:17;;;;;;;6.00;3.17;;;;;;;26.35;49.06;100827.81;5550938;32;33648;-57
2022/08/08 12:30:30;;;;;;;5.50;3.40;;;;;;;26.55;48.92;100825.69;5550806;32;34328;-57
2022/08/08 12:33:32;;;;;;;5.82;3.42;;;;;;;26.72;49.21;100822.28;5550983;32;34377;-57
2022/08/08 12:37:04;;;;;;;7.22;3.53;;;;;;;26.67;49.49;100819.91;5550962;32;33702;-57
2022/08/08 12:40:15;;;;;;;5.30;3.30;;;;;;;26.45;49.08;100833.41;5550931;32;34255;-57
2022/08/08 12:43:31;;;;;;;5.05;3.80;;;;;;;26.34;49.33;100826.22;5550629;32;33616;-57
2022/08/08 12:46:56;;;;;;;7.35;3.30;;;;;;;26.24;50.21;100833.97;5561243;32;33700;-57
2022/08/08 12:50:10;;;;;;;5.40;3.35;;;;;;;26.17;51.35;100839.41;5570259;32;34428;-57
2022/08/08 12:53:21;;;;;;;5.37;4.00;;;;;;;26.04;51.25;100837.28;5570495;32;33699;-57
2022/08/08 12:56:37;;;;;;;6.15;3.80;;;;;;;25.80;51.51;100841.28;5570640;32;34441;-57
2022/08/08 12:59:50;;;;;;;5.00;3.35;;;;;;;25.66;52.08;100842.66;5569883;32;33872;-57
2022/08/08 13:03:23;;;;;;;7.12;3.62;;;;;;;25.69;51.98;100850.13;5570354;32;33833;-57
2022/08/08 13:06:25;;;;;;;5.93;3.92;;;;;;;25.85;52.92;100857.44;5570357;32;33830;-57
2022/08/08 13:10:02;;;;;;;4.95;3.20;;;;;;;25.75;51.51;100854.16;5570291;32;33233;-57
2022/08/08 13:13:26;;;;;;;4.40;3.80;;;;;;;25.65;51.41;100859.50;5539038;31;34274;-57
2022/08/08 13:16:32;;;;;;;5.53;3.42;;;;;;;25.41;52.18;100863.47;5570117;32;33694;-57
2022/08/08 13:19:35;;;;;;;5.65;3.55;;;;;;;25.39;51.97;100861.09;5569683;32;34232;-57
2022/08/08 13:22:51;;;;;;;5.03;3.78;;;;;;;25.33;52.29;100861.78;5569936;32;33653;-57
2022/08/08 13:26:13;;;;;;;7.05;4.32;;;;;;;25.47;53.28;100862.78;5570101;32;34269;-57
2022/08/08 13:29:16;;;;;;;11.30;3.97;;;;;;;25.45;52.90;100862.34;5569990;32;33773;-57
2022/08/08 13:32:24;;;;;;;5.20;3.28;;;;;;;25.49;52.64;100859.66;5570116;32;33714;-57
2022/08/08 13:35:27;;;;;;;7.00;3.67;;;;;;;25.30;51.71;100853.13;5570069;32;33757;-57
2022/08/08 13:38:40;;;;;;;5.97;3.72;;;;;;;25.21;52.15;100858.06;5569736;32;34529;-57
2022/08/08 13:41:44;;;;;;;5.15;3.47;;;;;;;25.42;52.55;100862.31;5569933;32;33675;-57
2022/08/08 13:45:01;;;;;;;15.77;4.43;;;;;;;25.33;52.36;100867.25;5569912;32;34380;-57
2022/08/08 13:48:13;;;;;;;5.75;3.35;;;;;;;25.29;53.42;100859.75;5569774;31;33848;-57
2022/08/08 13:51:17;;;;;;;13.82;3.80;;;;;;;25.43;52.28;100859.22;5569011;32;33699;-57
2022/08/08 13:54:43;;;;;;;5.10;3.33;;;;;;;25.47;53.75;100860.03;5569731;32;33802;-57
2022/08/08 13:57:51;;;;;;;15.52;4.47;;;;;;;25.43;50.84;100847.41;5569748;32;33711;-57
2022/08/08 14:01:17;;;;;;;9.10;3.30;;;;;;;25.45;51.75;100851.38;5569639;32;33722;-57
2022/08/08 14:04:25;;;;;;;4.97;3.20;;;;;;;25.57;51.80;100844.09;5569588;32;33818;-57
2022/08/08 14:07:32;;;;;;;16.12;3.67;;;;;;;25.65;51.11;100854.00;5569496;32;33229;-57
2022/08/08 14:10:39;;;;;;;6.90;3.37;;;;;;;25.49;50.42;100846.72;5569273;32;34411;-57
2022/08/08 14:13:41;;;;;;;4.60;3.60;;;;;;;25.36;50.62;100850.06;5569322;32;33806;-57
2022/08/08 14:17:04;;;;;;;8.27;3.75;;;;;;;25.13;51.50;100848.13;5569343;32;33886;-57
2022/08/08 14:20:08;;;;;;;5.68;2.95;;;;;;;25.45;53.84;100845.88;5563126;32;33699;-57
2022/08/08 14:23:42;;;;;;;7.28;3.50;;;;;;;25.42;51.45;100841.13;5559577;32;34386;-57
2022/08/08 14:27:15;;;;;;;4.35;3.12;;;;;;;25.46;51.44;100846.69;5558877;32;33779;-57
2022/08/08 14:30:17;;;;;;;4.72;3.42;;;;;;;25.42;50.77;100838.38;5557634;32;33719;-57
2022/08/08 14:33:25;;;;;;;4.35;2.90;;;;;;;25.28;51.25;100838.97;5558042;32;34474;-57
2022/08/08 14:36:39;;;;;;;;;;;;;;;25.29;51.27;100845.25;5558306;32;33748;-57
2022/08/08 14:39:46;;;;;;;6.47;3.00;;;;;;;25.40;50.50;100821.53;5569526;32;34728;-58
2022/08/08 14:42:53;;;;;;;6.22;2.95;;;;;;;25.50;51.66;100820.88;5569496;32;34440;-57
2022/08/08 14:46:04;;;;;;;6.28;3.10;;;;;;;25.49;48.95;100822.03;5569523;32;34345;-57
2022/08/08 14:49:12;;;;;;;5.70;3.15;;;;;;;25.49;48.75;100822.03;5569490;32;33716;-58
2022/08/08 14:52:44;;;;;;;4.87;3.15;;;;;;;25.42;50.02;100834.84;5569048;32;34365;-58
2022/08/08 14:55:47;;;;;;;4.87;3.47;;;;;;;25.29;50.01;100835.06;5550007;32;33314;-57
2022/08/08 14:59:02;;;;;;;10.35;3.03;;;;;;;25.22;49.96;100836.91;5549378;32;33680;-57
2022/08/08 15:02:24;;;;;;;7.50;3.17;;;;;;;25.33;50.62;100832.41;5549584;32;33604;-57
2022/08/08 15:05:32;;;;;;;4.43;2.80;;;;;;;25.48;50.45;100839.66;5549183;32;34288;-57
2022/08/08 15:08:46;;;;;;;4.10;2.92;;;;;;;25.40;50.42;100837.19;5549798;32;34420;-57
